This is the latest recevied weather packets stored in our database for station/object HS5AU-13. If no packets are shown the sender has not sent any weather packets the latest 10 day(s).
| Time | Temp. | Humidity | Pressure | Rain* | Wind** | Luminosity | Snow |
|---|---|---|---|---|---|---|---|
| 1788585906 | 28.33° C | 75% | 1008.4 hPa | 0 mm | - | 1097 W/m² | - |
| 1788585306 | 28.33° C | 76% | 1008.6 hPa | 0 mm | - | 1289 W/m² | - |
| 1788584706 | 27.78° C | 73% | 1009 hPa | 0 mm | - | 590 W/m² | - |
| 1788584106 | 27.78° C | 76% | 1008.9 hPa | 0 mm | - | 811 W/m² | - |
| 1788583506 | 28.33° C | 80% | 1008.6 hPa | 0 mm | - | 666 W/m² | - |
| 1788582906 | 28.33° C | 89% | 1008.1 hPa | 0 mm | - | 592 W/m² | - |
| 1788582306 | 27.78° C | 83% | 1008.7 hPa | 0 mm | - | 503 W/m² | - |
| 1788581706 | 28.33° C | 84% | 1009.2 hPa | 0 mm | - | 700 W/m² | - |
| 1788581106 | 28.33° C | 77% | 1009.7 hPa | 0 mm | - | 1104 W/m² | - |
| 1788580506 | 27.78° C | 78% | 1009.6 hPa | 0 mm | - | 942 W/m² | - |
| 1788579907 | 28.33° C | 77% | 1009.6 hPa | 0 mm | - | 697 W/m² | - |
| 1788579306 | 27.78° C | 84% | 1009.1 hPa | 0 mm | - | 940 W/m² | - |
| 1788578706 | 27.22° C | 83% | 1009.1 hPa | 0 mm | - | 524 W/m² | - |
| 1788578106 | 27.78° C | 81% | 1009 hPa | 0 mm | - | 520 W/m² | - |
| 1788577506 | 26.67° C | 82% | 1009 hPa | 0 mm | - | 559 W/m² | - |
| 1788576906 | 27.22° C | 84% | 1008.9 hPa | 0 mm | - | 940 W/m² | - |
| 1788576306 | 26.11° C | 87% | 1008.3 hPa | 0 mm | - | 870 W/m² | - |
| 1788575706 | 25.56° C | 90% | 1007.1 hPa | 0 mm | - | 765 W/m² | - |
| 1788575106 | 25.56° C | 92% | 1006.6 hPa | 0 mm | - | 666 W/m² | - |
| 1788574506 | 25.56° C | 93% | 1006 hPa | 0 mm | - | 692 W/m² | - |
| 1788573906 | 25° C | 93% | 1005.9 hPa | 0 mm | - | 319 W/m² | - |
| 1788573306 | 25° C | 91% | 1006.4 hPa | 0 mm | - | 612 W/m² | - |
| 1788572706 | 25° C | 91% | 1006.3 hPa | 0 mm | - | 571 W/m² | - |
| 1788572106 | 24.44° C | 95% | 1004.8 hPa | 0 mm | - | 531 W/m² | - |
| 1788571506 | 23.89° C | 96% | 1004.6 hPa | 0 mm | - | 495 W/m² | - |
* Rain latest hour (hover to see other rain measurements)
** Current wind speed in m/s (hover to see current wind gust speed)